createdAt,value
2023-08-30T00:02:06.741Z,8.60
2023-08-30T00:04:35.992Z,7.32
2023-08-30T00:07:03.945Z,8.27
2023-08-30T00:09:31.738Z,7.25
2023-08-30T00:11:59.585Z,8.60
2023-08-30T00:14:27.383Z,8.15
2023-08-30T00:16:55.311Z,8.45
2023-08-30T00:19:22.176Z,8.40
2023-08-30T00:21:51.333Z,8.98
2023-08-30T00:24:19.083Z,8.73
2023-08-30T00:26:47.033Z,8.88
2023-08-30T00:29:15.770Z,8.90
2023-08-30T00:31:43.605Z,9.25
2023-08-30T00:34:11.517Z,9.18
2023-08-30T00:36:39.596Z,10.20
2023-08-30T00:39:09.798Z,9.88
2023-08-30T00:41:37.656Z,9.50
2023-08-30T00:44:06.280Z,9.75
2023-08-30T00:46:35.457Z,8.18
2023-08-30T00:49:03.774Z,9.18
2023-08-30T00:51:33.063Z,8.63
2023-08-30T00:54:02.051Z,9.32
2023-08-30T00:56:32.038Z,8.05
2023-08-30T00:59:00.047Z,8.82
2023-08-30T01:01:28.273Z,9.73
2023-08-30T01:03:56.140Z,10.70
2023-08-30T01:06:24.046Z,8.52
2023-08-30T01:08:52.665Z,10.13
2023-08-30T01:11:27.985Z,9.55
2023-08-30T01:14:01.545Z,9.40
2023-08-30T01:16:29.700Z,10.07
2023-08-30T01:18:58.813Z,9.45
2023-08-30T01:21:38.017Z,8.95
2023-08-30T01:24:09.438Z,8.10
2023-08-30T01:26:45.786Z,8.82
2023-08-30T01:29:17.797Z,8.25
2023-08-30T01:31:47.873Z,9.30
2023-08-30T01:34:17.663Z,8.43
2023-08-30T01:36:46.212Z,8.88
2023-08-30T01:39:16.126Z,10.23
2023-08-30T01:41:45.305Z,8.30
2023-08-30T01:44:17.916Z,9.43
2023-08-30T01:49:15.223Z,9.15
2023-08-30T01:51:43.319Z,7.15
2023-08-30T01:54:15.979Z,8.77
2023-08-30T01:59:11.441Z,8.65
2023-08-30T02:01:40.742Z,8.32
2023-08-30T02:04:08.870Z,8.30
2023-08-30T02:06:44.338Z,8.90
2023-08-30T02:09:20.103Z,8.88
2023-08-30T02:11:51.002Z,8.63
2023-08-30T02:14:20.316Z,7.95
2023-08-30T02:16:50.657Z,9.02
2023-08-30T02:19:22.047Z,9.05
2023-08-30T02:21:50.250Z,8.50
2023-08-30T02:24:19.917Z,7.70
2023-08-30T02:26:47.796Z,8.60
2023-08-30T02:29:16.127Z,8.32
2023-08-30T02:31:43.982Z,8.70
2023-08-30T02:34:13.192Z,8.82
2023-08-30T02:36:41.253Z,8.98
2023-08-30T02:39:09.431Z,9.57
2023-08-30T02:41:37.300Z,8.82
2023-08-30T02:44:05.268Z,9.40
2023-08-30T02:46:33.134Z,11.93
2023-08-30T02:49:01.056Z,8.98
2023-08-30T02:51:30.357Z,10.77
2023-08-30T02:53:58.121Z,9.75
2023-08-30T02:56:26.356Z,9.25
2023-08-30T02:58:54.174Z,9.48
2023-08-30T03:01:22.096Z,8.25
2023-08-30T03:03:50.990Z,8.45
2023-08-30T03:06:20.390Z,8.35
2023-08-30T03:08:49.675Z,9.38
2023-08-30T03:11:17.589Z,9.95
2023-08-30T03:13:51.657Z,7.70
2023-08-30T03:16:19.775Z,9.82
2023-08-30T03:18:48.441Z,8.85
2023-08-30T03:21:16.632Z,8.38
2023-08-30T03:23:44.464Z,8.27
2023-08-30T03:26:15.324Z,8.70
2023-08-30T03:28:44.046Z,8.15
2023-08-30T03:31:17.176Z,8.90
2023-08-30T03:33:46.678Z,7.75
2023-08-30T03:36:17.123Z,8.63
2023-08-30T03:38:45.819Z,8.18
2023-08-30T03:41:16.297Z,9.35
2023-08-30T03:43:46.034Z,8.27
2023-08-30T03:46:13.972Z,9.43
2023-08-30T03:48:41.860Z,8.40
2023-08-30T03:51:09.875Z,8.63
2023-08-30T03:53:37.716Z,8.70
2023-08-30T03:56:06.540Z,8.10
2023-08-30T03:58:35.835Z,8.02
2023-08-30T04:01:03.716Z,7.75
2023-08-30T04:03:31.828Z,8.20
2023-08-30T04:06:00.269Z,7.25
2023-08-30T04:08:28.204Z,8.10
2023-08-30T04:10:57.020Z,8.13
2023-08-30T04:13:25.413Z,7.95
2023-08-30T04:15:58.242Z,7.38
2023-08-30T04:18:26.579Z,10.15
2023-08-30T04:20:54.753Z,9.25
2023-08-30T04:23:22.694Z,8.35
2023-08-30T04:25:51.901Z,7.40
2023-08-30T04:28:19.798Z,8.68
2023-08-30T04:30:47.764Z,7.60
2023-08-30T04:33:17.106Z,8.43
2023-08-30T04:35:44.923Z,7.95
2023-08-30T04:38:13.771Z,8.10
2023-08-30T04:40:41.744Z,9.95
2023-08-30T04:43:23.564Z,9.73
2023-08-30T04:45:51.862Z,8.90
2023-08-30T04:48:21.287Z,10.43
2023-08-30T04:50:49.471Z,9.98
2023-08-30T04:53:17.318Z,8.85
2023-08-30T04:55:45.181Z,10.27
2023-08-30T04:58:13.090Z,9.05
2023-08-30T05:00:41.185Z,10.25
2023-08-30T05:03:09.392Z,9.32
2023-08-30T05:05:38.958Z,9.60
2023-08-30T05:08:07.805Z,11.48
2023-08-30T05:10:35.935Z,10.23
2023-08-30T05:13:05.188Z,10.25
2023-08-30T05:15:33.717Z,11.20
2023-08-30T05:18:02.367Z,10.52
2023-08-30T05:20:31.052Z,11.63
2023-08-30T05:23:00.366Z,10.52
2023-08-30T05:25:28.581Z,9.68
2023-08-30T05:27:57.069Z,10.25
2023-08-30T05:30:25.016Z,10.15
2023-08-30T05:32:55.232Z,9.75
2023-08-30T05:35:41.769Z,11.00
2023-08-30T05:38:44.366Z,9.95
2023-08-30T05:41:34.016Z,9.80
2023-08-30T05:44:02.020Z,8.98
2023-08-30T05:46:30.199Z,9.57
2023-08-30T05:48:58.437Z,9.77
2023-08-30T05:51:26.236Z,10.48
2023-08-30T05:53:55.517Z,9.48
2023-08-30T05:56:23.615Z,10.25
2023-08-30T05:58:52.491Z,10.98
2023-08-30T06:01:21.197Z,8.93
2023-08-30T06:03:49.182Z,10.90
2023-08-30T06:06:17.945Z,11.30
2023-08-30T06:08:45.845Z,9.52
2023-08-30T06:11:15.167Z,10.13
2023-08-30T06:13:43.151Z,10.23
2023-08-30T06:16:11.021Z,9.45
2023-08-30T06:18:39.432Z,8.95
2023-08-30T06:21:07.250Z,8.52
2023-08-30T06:23:35.495Z,9.27
2023-08-30T06:26:04.201Z,9.90
2023-08-30T06:28:33.446Z,8.55
2023-08-30T06:31:01.343Z,8.35
2023-08-30T06:33:29.269Z,8.02
2023-08-30T06:35:57.429Z,7.93
2023-08-30T06:38:25.206Z,7.15
2023-08-30T06:40:53.068Z,9.50
2023-08-30T06:43:20.901Z,9.15
2023-08-30T06:45:50.132Z,7.82
2023-08-30T06:48:18.390Z,7.60
2023-08-30T06:50:46.270Z,8.93
2023-08-30T06:53:14.242Z,7.72
2023-08-30T06:55:42.060Z,8.25
2023-08-30T06:58:10.173Z,7.75
2023-08-30T07:00:38.134Z,10.27
2023-08-30T07:03:07.673Z,8.05
2023-08-30T07:05:35.504Z,6.80
2023-08-30T07:08:03.815Z,7.93
2023-08-30T07:10:31.652Z,9.45
2023-08-30T07:12:59.503Z,7.93
2023-08-30T07:15:27.338Z,7.97
2023-08-30T07:17:56.761Z,8.23
2023-08-30T07:20:27.306Z,7.93
2023-08-30T07:22:55.171Z,8.48
2023-08-30T07:25:23.058Z,9.38
2023-08-30T07:27:50.821Z,7.47
2023-08-30T07:30:19.056Z,7.60
2023-08-30T07:32:46.841Z,7.70
2023-08-30T07:35:15.489Z,7.60
2023-08-30T07:37:45.016Z,7.45
2023-08-30T07:40:13.606Z,7.45
2023-08-30T07:42:41.646Z,7.00
2023-08-30T07:45:10.848Z,7.07
2023-08-30T07:47:38.637Z,6.18
2023-08-30T07:50:08.293Z,5.90
2023-08-30T07:52:45.474Z,6.53
2023-08-30T07:55:17.315Z,8.18
2023-08-30T07:57:45.250Z,7.28
2023-08-30T08:00:14.211Z,6.70
2023-08-30T08:02:44.736Z,6.90
2023-08-30T08:05:12.706Z,6.32
2023-08-30T08:07:41.507Z,6.32
2023-08-30T08:10:10.587Z,5.45
2023-08-30T08:12:40.082Z,5.55
2023-08-30T08:15:08.748Z,5.85
2023-08-30T08:17:36.618Z,5.07
2023-08-30T08:20:06.597Z,5.60
2023-08-30T08:22:34.520Z,5.53
2023-08-30T08:25:02.443Z,5.22
2023-08-30T08:27:31.545Z,4.75
2023-08-30T08:30:00.934Z,4.85
2023-08-30T08:32:28.840Z,5.85
2023-08-30T08:34:56.804Z,4.88
2023-08-30T08:37:24.740Z,5.47
2023-08-30T08:39:52.697Z,4.95
2023-08-30T08:42:21.758Z,5.13
2023-08-30T08:44:51.767Z,6.20
2023-08-30T08:47:21.898Z,4.07
2023-08-30T08:49:50.559Z,4.55
2023-08-30T08:52:29.289Z,4.25
2023-08-30T08:55:01.466Z,4.13
2023-08-30T08:57:32.787Z,4.45
2023-08-30T09:00:00.867Z,4.82
2023-08-30T09:02:30.763Z,4.32
2023-08-30T09:04:59.647Z,3.95
2023-08-30T09:07:29.245Z,4.57
2023-08-30T09:09:57.232Z,5.47
2023-08-30T09:12:25.211Z,3.88
2023-08-30T09:14:57.441Z,4.47
2023-08-30T09:17:25.971Z,4.78
2023-08-30T09:19:55.122Z,3.63
2023-08-30T09:22:23.205Z,3.70
2023-08-30T09:24:51.023Z,4.47
2023-08-30T09:27:20.446Z,3.50
2023-08-30T09:29:48.356Z,3.42
2023-08-30T09:32:23.100Z,4.38
2023-08-30T09:34:50.994Z,4.10
2023-08-30T09:37:23.552Z,4.88
2023-08-30T09:42:20.279Z,3.33
2023-08-30T09:44:48.854Z,3.28
2023-08-30T09:47:17.295Z,5.70
2023-08-30T09:49:46.790Z,4.90
2023-08-30T09:52:19.984Z,4.82
2023-08-30T09:54:49.451Z,3.53
2023-08-30T09:57:18.185Z,4.28
2023-08-30T09:59:47.770Z,5.75
2023-08-30T10:02:15.941Z,4.70
2023-08-30T10:04:46.328Z,4.20
2023-08-30T10:07:14.617Z,4.38
2023-08-30T10:09:59.078Z,3.85
2023-08-30T10:12:33.678Z,4.45
2023-08-30T10:15:02.679Z,4.43
2023-08-30T10:17:35.275Z,3.67
2023-08-30T10:20:07.740Z,3.67
2023-08-30T10:22:39.185Z,3.70
2023-08-30T10:25:12.414Z,4.10
2023-08-30T10:27:45.302Z,3.60
2023-08-30T10:30:14.505Z,4.50
2023-08-30T10:32:43.074Z,4.60
2023-08-30T10:35:13.450Z,5.78
2023-08-30T10:37:41.778Z,3.42
2023-08-30T10:40:11.051Z,5.50
2023-08-30T10:42:38.892Z,3.67
2023-08-30T10:45:20.107Z,4.15
2023-08-30T10:47:48.362Z,3.72
2023-08-30T10:50:16.373Z,3.80
2023-08-30T10:52:44.305Z,3.83
2023-08-30T10:55:14.038Z,2.83
2023-08-30T10:57:44.594Z,4.43
2023-08-30T11:00:21.333Z,3.35
2023-08-30T11:02:51.536Z,2.67
2023-08-30T11:05:21.457Z,3.20
2023-08-30T11:07:50.105Z,3.30
2023-08-30T11:10:18.277Z,4.43
2023-08-30T11:12:46.997Z,2.92
2023-08-30T11:15:16.316Z,2.97
2023-08-30T11:17:45.000Z,3.47
2023-08-30T11:20:14.081Z,3.70
2023-08-30T11:22:44.110Z,4.00
2023-08-30T11:25:13.283Z,3.95
2023-08-30T11:27:41.598Z,3.55
2023-08-30T11:30:11.234Z,3.47
2023-08-30T11:32:43.956Z,3.78
2023-08-30T11:35:12.616Z,3.55
2023-08-30T11:37:42.286Z,5.30
2023-08-30T11:40:13.569Z,3.33
2023-08-30T11:42:41.927Z,3.38
2023-08-30T11:45:11.228Z,4.45
2023-08-30T11:47:42.235Z,3.58
2023-08-30T11:50:13.405Z,3.28
2023-08-30T11:52:41.521Z,2.97
2023-08-30T11:55:09.981Z,4.13
2023-08-30T11:57:38.266Z,3.53
2023-08-30T12:00:11.224Z,3.67
2023-08-30T12:02:41.957Z,3.95
2023-08-30T12:05:13.678Z,3.08
2023-08-30T12:07:42.472Z,3.43
2023-08-30T12:10:12.203Z,2.83
2023-08-30T12:12:40.380Z,3.20
2023-08-30T12:15:12.269Z,3.65
2023-08-30T12:17:42.057Z,3.28
2023-08-30T12:20:17.431Z,4.07
2023-08-30T12:22:45.614Z,2.83
2023-08-30T12:25:20.921Z,2.90
2023-08-30T12:27:49.220Z,3.22
2023-08-30T12:30:18.063Z,3.17
2023-08-30T12:32:48.227Z,3.03
2023-08-30T12:35:16.486Z,3.15
2023-08-30T12:37:44.519Z,3.05
2023-08-30T12:40:13.405Z,2.63
2023-08-30T12:42:41.446Z,2.80
2023-08-30T12:45:11.478Z,2.55
2023-08-30T12:47:39.452Z,3.10
2023-08-30T12:50:10.618Z,3.35
2023-08-30T12:52:38.544Z,4.00
2023-08-30T12:55:07.157Z,3.50
2023-08-30T12:57:35.072Z,3.40
2023-08-30T13:00:04.160Z,2.90
2023-08-30T13:02:32.040Z,2.42
2023-08-30T13:05:00.143Z,2.95
2023-08-30T13:07:29.372Z,2.65
2023-08-30T13:09:57.336Z,2.95
2023-08-30T13:12:26.202Z,3.10
2023-08-30T13:14:54.039Z,2.60
2023-08-30T13:17:21.923Z,2.90
2023-08-30T13:19:50.429Z,2.85
2023-08-30T13:22:18.912Z,2.13
2023-08-30T13:24:48.626Z,2.60
2023-08-30T13:27:16.648Z,2.40
2023-08-30T13:29:44.503Z,2.35
2023-08-30T13:32:12.585Z,2.17
2023-08-30T13:34:40.888Z,2.20
2023-08-30T13:37:08.712Z,1.90
2023-08-30T13:39:36.559Z,1.90
2023-08-30T13:42:06.229Z,2.10
2023-08-30T13:44:34.358Z,1.80
2023-08-30T13:47:02.490Z,2.42
2023-08-30T13:49:31.026Z,2.40
2023-08-30T13:51:59.232Z,2.47
2023-08-30T13:54:30.020Z,2.25
2023-08-30T13:56:59.734Z,1.60
2023-08-30T13:59:31.528Z,2.10
2023-08-30T14:01:59.629Z,1.92
2023-08-30T14:04:27.719Z,2.35
2023-08-30T14:06:55.556Z,1.73
2023-08-30T14:09:23.434Z,2.67
2023-08-30T14:11:51.702Z,1.92
2023-08-30T14:14:19.539Z,1.90
2023-08-30T14:16:48.755Z,2.25
2023-08-30T14:19:18.508Z,2.17
2023-08-30T14:21:46.861Z,2.33
2023-08-30T14:24:14.813Z,2.10
2023-08-30T14:26:42.851Z,2.20
2023-08-30T14:29:10.646Z,2.92
2023-08-30T14:31:38.672Z,2.65
2023-08-30T14:34:09.344Z,2.83
2023-08-30T14:36:37.310Z,3.08
2023-08-30T14:39:05.405Z,2.33
2023-08-30T14:41:33.975Z,2.60
2023-08-30T14:44:01.854Z,2.70
2023-08-30T14:46:30.394Z,2.15
2023-08-30T14:48:58.327Z,2.00
2023-08-30T14:51:27.721Z,3.15
2023-08-30T14:53:55.912Z,2.22
2023-08-30T14:56:24.015Z,2.65
2023-08-30T14:58:52.906Z,2.75
2023-08-30T15:01:21.854Z,3.97
2023-08-30T15:03:49.864Z,3.42
2023-08-30T15:06:17.807Z,2.67
2023-08-30T15:08:47.077Z,3.25
2023-08-30T15:11:15.051Z,2.78
2023-08-30T15:13:43.199Z,4.18
2023-08-30T15:16:11.236Z,2.75
2023-08-30T15:18:39.084Z,2.53
2023-08-30T15:21:07.891Z,3.42
2023-08-30T15:23:38.636Z,3.65
2023-08-30T15:26:09.028Z,3.15
2023-08-30T15:28:36.920Z,2.83
2023-08-30T15:31:04.799Z,3.03
2023-08-30T15:33:32.854Z,3.55
2023-08-30T15:36:00.785Z,3.22
2023-08-30T15:38:28.736Z,3.20
2023-08-30T15:40:57.014Z,4.35
2023-08-30T15:43:27.173Z,3.30
2023-08-30T15:45:55.600Z,3.78
2023-08-30T15:48:23.749Z,5.53
2023-08-30T15:50:51.721Z,3.33
2023-08-30T15:53:19.683Z,3.55
2023-08-30T15:55:47.631Z,3.53
2023-08-30T15:58:16.272Z,4.43
2023-08-30T16:00:45.681Z,3.75
2023-08-30T16:03:13.685Z,3.42
2023-08-30T16:05:41.724Z,5.18
2023-08-30T16:08:10.323Z,3.53
2023-08-30T16:10:38.677Z,4.93
2023-08-30T16:13:06.644Z,3.38
2023-08-30T16:15:34.592Z,4.13
2023-08-30T16:18:04.081Z,4.07
2023-08-30T16:20:33.306Z,3.83
2023-08-30T16:23:01.429Z,4.45
2023-08-30T16:25:29.290Z,4.75
2023-08-30T16:27:57.346Z,4.63
2023-08-30T16:30:26.955Z,3.15
2023-08-30T16:32:55.321Z,4.53
2023-08-30T16:35:25.961Z,4.75
2023-08-30T16:37:54.016Z,3.67
2023-08-30T16:40:22.124Z,4.13
2023-08-30T16:42:50.567Z,3.40
2023-08-30T16:45:18.709Z,3.53
2023-08-30T16:48:04.358Z,4.80
2023-08-30T16:50:36.297Z,4.68
2023-08-30T16:53:06.842Z,4.65
2023-08-30T16:55:34.755Z,7.97
2023-08-30T16:58:02.650Z,3.97
2023-08-30T17:00:30.715Z,4.30
2023-08-30T17:02:58.628Z,4.43
2023-08-30T17:05:26.757Z,4.65
2023-08-30T17:07:56.276Z,5.38
2023-08-30T17:10:25.081Z,4.82
2023-08-30T17:12:57.805Z,4.95
2023-08-30T17:15:26.215Z,5.00
2023-08-30T17:17:54.843Z,4.10
2023-08-30T17:20:22.812Z,5.50
2023-08-30T17:22:51.692Z,3.42
2023-08-30T17:25:20.960Z,4.45
2023-08-30T17:27:48.978Z,4.10
2023-08-30T17:30:17.485Z,3.67
2023-08-30T17:32:45.436Z,4.70
2023-08-30T17:35:13.902Z,3.13
2023-08-30T17:37:42.623Z,3.75
2023-08-30T17:40:12.114Z,4.45
2023-08-30T17:42:41.404Z,3.97
2023-08-30T17:45:21.444Z,3.60
2023-08-30T17:47:49.701Z,2.90
2023-08-30T17:50:17.872Z,4.13
2023-08-30T17:52:45.793Z,4.45
2023-08-30T17:55:16.056Z,3.58
2023-08-30T17:57:45.688Z,3.08
2023-08-30T18:00:15.225Z,3.08
2023-08-30T18:02:43.328Z,2.88
2023-08-30T18:05:11.185Z,3.03
2023-08-30T18:07:39.183Z,3.40
2023-08-30T18:10:08.361Z,3.58
2023-08-30T18:12:36.319Z,2.42
2023-08-30T18:15:06.387Z,2.75
2023-08-30T18:17:35.932Z,2.95
2023-08-30T18:20:07.433Z,2.88
2023-08-30T18:22:35.387Z,2.08
2023-08-30T18:25:05.448Z,2.75
2023-08-30T18:27:33.518Z,3.17
2023-08-30T18:30:01.495Z,4.13
2023-08-30T18:32:30.874Z,2.05
2023-08-30T18:34:58.744Z,3.58
2023-08-30T18:37:27.190Z,2.00
2023-08-30T18:40:16.965Z,3.45
2023-08-30T18:42:44.901Z,2.55
2023-08-30T18:45:12.790Z,2.00
2023-08-30T18:47:42.213Z,2.20
2023-08-30T18:50:13.153Z,2.20
2023-08-30T18:52:41.065Z,2.33
2023-08-30T18:55:09.742Z,3.15
2023-08-30T18:57:37.727Z,2.90
2023-08-30T19:00:11.239Z,2.95
2023-08-30T19:02:39.442Z,3.13
2023-08-30T19:05:09.934Z,2.72
2023-08-30T19:07:37.866Z,2.08
2023-08-30T19:10:07.929Z,2.65
2023-08-30T19:12:35.987Z,3.22
2023-08-30T19:15:04.579Z,3.25
2023-08-30T19:17:32.627Z,2.65
2023-08-30T19:20:00.545Z,3.38
2023-08-30T19:22:30.049Z,3.08
2023-08-30T19:24:58.023Z,2.65
2023-08-30T19:27:27.105Z,3.17
2023-08-30T19:29:54.990Z,2.03
2023-08-30T19:32:22.940Z,2.80
2023-08-30T19:34:51.100Z,3.42
2023-08-30T19:37:19.941Z,2.95
2023-08-30T19:39:49.521Z,3.95
2023-08-30T19:42:21.225Z,3.58
2023-08-30T19:44:56.124Z,4.30
2023-08-30T19:47:24.017Z,3.20
2023-08-30T19:49:52.369Z,4.63
2023-08-30T19:52:20.372Z,3.30
2023-08-30T19:54:49.673Z,3.58
2023-08-30T19:57:19.176Z,4.80
2023-08-30T19:59:47.386Z,3.92
2023-08-30T20:02:16.248Z,3.83
2023-08-30T20:04:44.291Z,4.07
2023-08-30T20:07:12.156Z,3.22
2023-08-30T20:09:40.039Z,3.50
2023-08-30T20:12:11.569Z,4.55
2023-08-30T20:14:39.631Z,4.57
2023-08-30T20:17:07.638Z,3.95
2023-08-30T20:19:35.743Z,3.65
2023-08-30T20:22:03.859Z,4.55
2023-08-30T20:24:31.914Z,2.78
2023-08-30T20:26:59.824Z,2.90
2023-08-30T20:29:29.117Z,2.38
2023-08-30T20:31:57.035Z,3.20
2023-08-30T20:34:25.265Z,4.72
2023-08-30T20:36:53.156Z,2.42
2023-08-30T20:39:22.268Z,4.05
2023-08-30T20:41:51.634Z,3.22
2023-08-30T20:44:19.824Z,3.50
2023-08-30T20:46:49.237Z,3.67
2023-08-30T20:49:17.259Z,2.60
2023-08-30T20:51:45.344Z,2.42
2023-08-30T20:54:13.288Z,3.40
2023-08-30T20:56:41.155Z,3.63
2023-08-30T20:59:09.587Z,2.55
2023-08-30T21:01:37.588Z,2.45
2023-08-30T21:04:07.600Z,3.05
2023-08-30T21:06:35.532Z,2.63
2023-08-30T21:09:04.110Z,2.67
2023-08-30T21:11:31.952Z,4.35
2023-08-30T21:14:00.605Z,3.00
2023-08-30T21:16:28.536Z,2.30
2023-08-30T21:18:56.508Z,3.13
2023-08-30T21:21:25.856Z,2.92
2023-08-30T21:23:53.748Z,4.78
2023-08-30T21:26:21.552Z,3.58
2023-08-30T21:28:51.463Z,2.35
2023-08-30T21:31:24.680Z,2.70
2023-08-30T21:33:54.453Z,3.42
2023-08-30T21:36:22.666Z,3.53
2023-08-30T21:38:51.929Z,3.03
2023-08-30T21:41:21.466Z,3.00
2023-08-30T21:43:49.643Z,4.35
2023-08-30T21:46:17.744Z,2.85
2023-08-30T21:48:45.813Z,3.38
2023-08-30T21:51:13.724Z,2.72
2023-08-30T21:53:41.562Z,3.42
2023-08-30T21:56:10.788Z,4.13
2023-08-30T21:58:38.672Z,2.35
2023-08-30T22:01:06.625Z,2.08
2023-08-30T22:03:35.099Z,3.63
2023-08-30T22:06:06.484Z,3.78
2023-08-30T22:08:34.500Z,2.42
2023-08-30T22:11:02.414Z,2.88
2023-08-30T22:13:31.781Z,3.65
2023-08-30T22:15:59.745Z,2.30
2023-08-30T22:18:27.939Z,3.40
2023-08-30T22:20:55.907Z,3.50
2023-08-30T22:23:23.999Z,1.95
2023-08-30T22:25:51.808Z,1.95
2023-08-30T22:28:20.161Z,2.80
2023-08-30T22:30:49.656Z,3.47
2023-08-30T22:33:17.779Z,2.17
2023-08-30T22:35:46.218Z,2.10
2023-08-30T22:38:14.143Z,2.08
2023-08-30T22:40:41.965Z,2.67
2023-08-30T22:43:10.639Z,2.65
2023-08-30T22:45:39.183Z,3.40
2023-08-30T22:48:10.054Z,2.17
2023-08-30T22:50:38.663Z,2.55
2023-08-30T22:53:06.760Z,3.00
2023-08-30T22:55:37.086Z,2.88
2023-08-30T22:58:05.949Z,3.00
2023-08-30T23:00:33.815Z,2.47
2023-08-30T23:03:01.739Z,2.40
2023-08-30T23:05:30.984Z,3.53
2023-08-30T23:07:59.192Z,3.88
2023-08-30T23:10:29.067Z,3.17
2023-08-30T23:12:56.930Z,3.00
2023-08-30T23:15:24.753Z,3.15
2023-08-30T23:17:53.972Z,3.28
2023-08-30T23:20:22.594Z,3.78
2023-08-30T23:22:52.077Z,2.42
2023-08-30T23:25:20.045Z,3.35
2023-08-30T23:27:47.915Z,3.47
2023-08-30T23:30:17.548Z,3.38
2023-08-30T23:32:45.961Z,2.90
2023-08-30T23:35:13.874Z,3.67
2023-08-30T23:37:41.799Z,4.43
2023-08-30T23:40:12.090Z,4.65
2023-08-30T23:42:40.361Z,3.45
2023-08-30T23:45:09.571Z,4.15
2023-08-30T23:47:38.529Z,3.08
2023-08-30T23:50:09.070Z,2.90
2023-08-30T23:52:37.037Z,3.25
2023-08-30T23:55:05.873Z,2.85
2023-08-30T23:57:35.309Z,3.22
